createdAt,value
2019-04-04T00:02:05.104Z,98606.02
2019-04-04T00:04:38.522Z,98603.26
2019-04-04T00:07:12.503Z,98604.97
2019-04-04T00:09:46.724Z,98599.30
2019-04-04T00:12:20.453Z,98601.41
2019-04-04T00:14:54.127Z,98596.08
2019-04-04T00:17:27.488Z,98595.87
2019-04-04T00:20:01.479Z,98595.03
2019-04-04T00:22:35.827Z,98598.84
2019-04-04T00:25:10.389Z,98594.27
2019-04-04T00:27:43.942Z,98594.14
2019-04-04T00:30:18.566Z,98586.92
2019-04-04T00:32:52.783Z,98593.39
2019-04-04T00:35:27.023Z,98587.47
2019-04-04T00:38:00.234Z,98588.86
2019-04-04T00:40:33.553Z,98581.34
2019-04-04T00:43:06.275Z,98586.80
2019-04-04T00:45:40.217Z,98581.17
2019-04-04T00:48:13.715Z,98576.85
2019-04-04T00:50:47.448Z,98577.45
2019-04-04T00:53:20.920Z,98574.84
2019-04-04T00:55:53.665Z,98568.80
2019-04-04T00:58:26.999Z,98569.02
2019-04-04T01:01:00.014Z,98563.94
2019-04-04T01:03:33.823Z,98560.78
2019-04-04T01:06:07.016Z,98562.84
2019-04-04T01:08:40.478Z,98564.48
2019-04-04T01:11:13.703Z,98557.67
2019-04-04T01:13:46.970Z,98564.85
2019-04-04T01:16:20.307Z,98562.01
2019-04-04T01:18:54.590Z,98556.63
2019-04-04T01:21:27.908Z,98546.84
2019-04-04T01:24:01.683Z,98550.30
2019-04-04T01:26:35.819Z,98554.66
2019-04-04T01:29:11.041Z,98548.73
2019-04-04T01:31:46.028Z,98553.27
2019-04-04T01:34:21.434Z,98548.33
2019-04-04T01:36:56.557Z,98546.05
2019-04-04T01:39:31.217Z,98542.75
2019-04-04T01:42:07.278Z,98545.05
2019-04-04T01:44:42.288Z,98548.75
2019-04-04T01:47:17.026Z,98546.77
2019-04-04T01:49:52.435Z,98546.10
2019-04-04T01:52:28.661Z,98539.34
2019-04-04T01:55:03.405Z,98546.31
2019-04-04T01:57:38.925Z,98539.77
2019-04-04T02:00:15.135Z,98535.06
2019-04-04T02:02:51.903Z,98533.34
2019-04-04T02:05:26.823Z,98533.05
2019-04-04T02:08:00.995Z,98536.70
2019-04-04T02:10:35.725Z,98534.27
2019-04-04T02:13:10.431Z,98533.00
2019-04-04T02:15:45.326Z,98526.42
2019-04-04T02:18:19.350Z,98529.27
2019-04-04T02:20:53.166Z,98525.24
2019-04-04T02:23:27.213Z,98519.11
2019-04-04T02:26:04.849Z,98517.52
2019-04-04T02:28:37.977Z,98520.28
2019-04-04T02:31:12.151Z,98529.39
2019-04-04T02:33:45.559Z,98528.22
2019-04-04T02:36:19.339Z,98518.27
2019-04-04T02:39:09.416Z,98520.45
2019-04-04T02:41:47.527Z,98519.86
2019-04-04T02:44:18.981Z,98513.19
2019-04-04T02:46:52.195Z,98513.36
2019-04-04T02:49:29.214Z,98516.09
2019-04-04T02:52:01.314Z,98515.12
2019-04-04T02:54:35.299Z,98512.43
2019-04-04T02:57:09.626Z,98503.30
2019-04-04T02:59:42.968Z,98509.80
2019-04-04T03:02:17.050Z,98509.20
2019-04-04T03:04:50.504Z,98505.00
2019-04-04T03:07:24.637Z,98509.75
2019-04-04T03:09:58.292Z,98508.18
2019-04-04T03:12:32.146Z,98508.78
2019-04-04T03:15:06.304Z,98507.78
2019-04-04T03:17:41.629Z,98511.50
2019-04-04T03:20:17.314Z,98505.42
2019-04-04T03:22:50.412Z,98502.02
2019-04-04T03:25:23.705Z,98505.42
2019-04-04T03:27:58.244Z,98513.05
2019-04-04T03:30:33.630Z,98511.17
2019-04-04T03:33:07.925Z,98508.79
2019-04-04T03:35:42.331Z,98506.02
2019-04-04T03:38:15.627Z,98495.79
2019-04-04T03:40:48.441Z,98501.58
2019-04-04T03:43:22.223Z,98504.84
2019-04-04T03:46:00.343Z,98503.41
2019-04-04T03:48:31.923Z,98509.78
2019-04-04T03:51:05.527Z,98508.52
2019-04-04T03:53:41.806Z,98502.86
2019-04-04T03:56:16.102Z,98509.73
2019-04-04T03:58:50.211Z,98510.88
2019-04-04T04:01:24.807Z,98509.25
2019-04-04T04:03:58.410Z,98509.32
2019-04-04T04:06:32.558Z,98512.34
2019-04-04T04:09:07.385Z,98514.26
2019-04-04T04:11:41.573Z,98512.34
2019-04-04T04:14:15.547Z,98510.16
2019-04-04T04:16:49.598Z,98507.85
2019-04-04T04:19:24.435Z,98512.04
2019-04-04T04:21:59.098Z,98516.64
2019-04-04T04:24:32.901Z,98515.02
2019-04-04T04:27:06.564Z,98513.38
2019-04-04T04:29:39.854Z,98510.41
2019-04-04T04:32:13.187Z,98511.41
2019-04-04T04:34:46.956Z,98511.70
2019-04-04T04:37:21.113Z,98514.05
2019-04-04T04:39:55.281Z,98512.70
2019-04-04T04:42:29.533Z,98515.17
2019-04-04T04:45:03.650Z,98511.65
2019-04-04T04:47:37.426Z,98511.14
2019-04-04T04:50:11.434Z,98510.09
2019-04-04T04:52:46.746Z,98503.52
2019-04-04T04:55:20.304Z,98507.42
2019-04-04T04:57:56.270Z,98503.23
2019-04-04T05:00:30.175Z,98513.97
2019-04-04T05:03:03.875Z,98500.05
2019-04-04T05:05:38.065Z,98505.03
2019-04-04T05:08:11.294Z,98504.00
2019-04-04T05:10:45.916Z,98503.59
2019-04-04T05:13:20.707Z,98501.23
2019-04-04T05:15:55.117Z,98509.50
2019-04-04T05:18:49.419Z,98505.34
2019-04-04T05:21:25.572Z,98509.20
2019-04-04T05:23:58.508Z,98502.23
2019-04-04T05:26:34.234Z,98510.30
2019-04-04T05:29:07.621Z,98511.86
2019-04-04T05:31:41.349Z,98511.02
2019-04-04T05:34:15.667Z,98511.23
2019-04-04T05:36:49.749Z,98510.56
2019-04-04T05:39:23.453Z,98508.47
2019-04-04T05:41:58.090Z,98513.92
2019-04-04T05:44:34.309Z,98514.33
2019-04-04T05:47:07.771Z,98515.26
2019-04-04T05:49:42.494Z,98512.20
2019-04-04T05:52:16.325Z,98513.97
2019-04-04T05:54:49.984Z,98517.95
2019-04-04T05:57:23.257Z,98515.98
2019-04-04T05:59:57.201Z,98517.45
2019-04-04T06:02:30.805Z,98520.77
2019-04-04T06:05:04.621Z,98515.44
2019-04-04T06:07:37.448Z,98524.03
2019-04-04T06:10:12.212Z,98519.21
2019-04-04T06:12:45.735Z,98522.59
2019-04-04T06:15:18.947Z,98518.11
2019-04-04T06:17:52.945Z,98516.80
2019-04-04T06:20:27.073Z,98517.75
2019-04-04T06:23:01.240Z,98516.70
2019-04-04T06:25:35.913Z,98519.84
2019-04-04T06:28:12.016Z,98515.08
2019-04-04T06:30:45.497Z,98516.17
2019-04-04T06:33:19.228Z,98511.77
2019-04-04T06:35:52.528Z,98507.59
2019-04-04T06:38:26.774Z,98506.28
2019-04-04T06:41:00.868Z,98498.83
2019-04-04T06:43:35.893Z,98500.80
2019-04-04T06:46:09.754Z,98501.31
2019-04-04T06:48:43.940Z,98503.74
2019-04-04T06:51:17.559Z,98502.61
2019-04-04T06:53:53.699Z,98500.41
2019-04-04T06:56:26.781Z,98498.65
2019-04-04T06:59:00.573Z,98504.11
2019-04-04T07:01:34.302Z,98499.19
2019-04-04T07:04:07.910Z,98497.56
2019-04-04T07:06:42.488Z,98492.05
2019-04-04T07:09:18.990Z,98497.40
2019-04-04T07:11:52.500Z,98500.31
2019-04-04T07:14:30.025Z,98492.59
2019-04-04T07:17:01.864Z,98484.65
2019-04-04T07:19:34.472Z,98495.27
2019-04-04T07:22:08.099Z,98493.57
2019-04-04T07:24:41.057Z,98491.29
2019-04-04T07:27:16.200Z,98484.96
2019-04-04T07:29:49.861Z,98487.09
2019-04-04T07:32:22.414Z,98488.67
2019-04-04T07:34:56.052Z,98486.24
2019-04-04T07:37:30.797Z,98486.66
2019-04-04T07:40:04.534Z,98476.83
2019-04-04T07:42:40.050Z,98490.38
2019-04-04T07:45:14.222Z,98485.47
2019-04-04T07:47:47.482Z,98488.25
2019-04-04T07:50:20.809Z,98485.01
2019-04-04T07:52:52.803Z,98480.00
2019-04-04T07:55:24.837Z,98484.73
2019-04-04T07:57:58.296Z,98478.33
2019-04-04T08:00:32.422Z,98486.38
2019-04-04T08:03:05.663Z,98485.42
2019-04-04T08:05:39.458Z,98477.67
2019-04-04T08:08:12.308Z,98477.95
2019-04-04T08:10:45.664Z,98480.27
2019-04-04T08:13:17.985Z,98476.43
2019-04-04T08:15:51.754Z,98476.50
2019-04-04T08:18:24.230Z,98476.34
2019-04-04T08:20:57.599Z,98475.92
2019-04-04T08:23:30.349Z,98480.48
2019-04-04T08:26:03.230Z,98479.94
2019-04-04T08:28:36.868Z,98476.86
2019-04-04T08:31:10.982Z,98479.68
2019-04-04T08:33:44.679Z,98481.23
2019-04-04T08:36:18.663Z,98469.55
2019-04-04T08:38:52.701Z,98468.17
2019-04-04T08:41:26.384Z,98472.22
2019-04-04T08:44:00.591Z,98463.73
2019-04-04T08:46:33.733Z,98459.73
2019-04-04T08:49:06.989Z,98452.89
2019-04-04T08:51:41.118Z,98462.33
2019-04-04T08:54:15.306Z,98448.83
2019-04-04T08:56:49.353Z,98455.11
2019-04-04T08:59:23.561Z,98458.26
2019-04-04T09:01:57.451Z,98458.27
2019-04-04T09:04:31.560Z,98441.83
2019-04-04T09:07:05.187Z,98459.14
2019-04-04T09:09:39.389Z,98451.52
2019-04-04T09:12:13.183Z,98447.48
2019-04-04T09:14:46.814Z,98439.09
2019-04-04T09:17:20.446Z,98442.27
2019-04-04T09:19:54.530Z,98439.73
2019-04-04T09:22:27.868Z,98446.46
2019-04-04T09:25:01.567Z,98431.41
2019-04-04T09:27:36.047Z,98449.51
2019-04-04T09:30:10.156Z,98438.13
2019-04-04T09:32:44.278Z,98435.27
2019-04-04T09:35:18.698Z,98441.17
2019-04-04T09:37:52.683Z,98436.06
2019-04-04T09:40:26.390Z,98429.39
2019-04-04T09:43:00.126Z,98415.52
2019-04-04T09:45:35.522Z,98425.12
2019-04-04T09:48:09.870Z,98426.35
2019-04-04T09:50:48.886Z,98428.43
2019-04-04T09:53:22.513Z,98415.00
2019-04-04T09:55:55.289Z,98420.67
2019-04-04T09:58:28.477Z,98414.89
2019-04-04T10:01:02.194Z,98416.55
2019-04-04T10:03:36.305Z,98419.50
2019-04-04T10:06:10.519Z,98413.72
2019-04-04T10:08:43.612Z,98411.41
2019-04-04T10:11:17.607Z,98411.11
2019-04-04T10:13:50.078Z,98398.60
2019-04-04T10:16:23.032Z,98404.06
2019-04-04T10:18:57.171Z,98396.06
2019-04-04T10:21:33.432Z,98389.98
2019-04-04T10:24:09.438Z,98397.19
2019-04-04T10:26:41.861Z,98399.27
2019-04-04T10:29:13.823Z,98387.03
2019-04-04T10:31:46.772Z,98399.43
2019-04-04T10:34:18.781Z,98385.53
2019-04-04T10:36:51.132Z,98392.23
2019-04-04T10:39:29.415Z,98381.29
2019-04-04T10:41:58.758Z,98384.59
2019-04-04T10:44:30.860Z,98391.56
2019-04-04T10:47:04.638Z,98387.59
2019-04-04T10:49:37.659Z,98389.42
2019-04-04T10:52:10.603Z,98380.43
2019-04-04T10:54:42.991Z,98378.42
2019-04-04T10:57:16.751Z,98382.81
2019-04-04T10:59:50.190Z,98372.31
2019-04-04T11:02:23.514Z,98365.61
2019-04-04T11:04:55.965Z,98376.59
2019-04-04T11:07:29.214Z,98360.08
2019-04-04T11:10:01.653Z,98362.84
2019-04-04T11:12:34.566Z,98366.06
2019-04-04T11:15:07.299Z,98369.19
2019-04-04T11:17:40.083Z,98362.67
2019-04-04T11:20:12.914Z,98364.09
2019-04-04T11:22:45.436Z,98354.37
2019-04-04T11:25:17.474Z,98348.38
2019-04-04T11:27:50.635Z,98359.83
2019-04-04T11:30:23.891Z,98349.13
2019-04-04T11:32:56.755Z,98349.66
2019-04-04T11:35:29.657Z,98335.78
2019-04-04T11:38:02.546Z,98337.95
2019-04-04T11:40:35.483Z,98331.79
2019-04-04T11:43:07.801Z,98317.55
2019-04-04T11:45:40.742Z,98315.80
2019-04-04T11:48:14.117Z,98323.56
2019-04-04T11:50:46.969Z,98318.77
2019-04-04T11:53:20.734Z,98310.77
2019-04-04T11:55:54.160Z,98304.08
2019-04-04T11:58:28.826Z,98289.73
2019-04-04T12:01:02.820Z,98302.86
2019-04-04T12:03:34.769Z,98299.89
2019-04-04T12:06:07.591Z,98287.00
2019-04-04T12:08:40.453Z,98285.34
2019-04-04T12:11:13.876Z,98286.04
2019-04-04T12:13:46.373Z,98287.92
2019-04-04T12:16:19.795Z,98288.70
2019-04-04T12:18:52.298Z,98287.18
2019-04-04T12:21:25.613Z,98281.75
2019-04-04T12:23:59.070Z,98267.81
2019-04-04T12:26:31.350Z,98271.09
2019-04-04T12:29:03.781Z,98272.78
2019-04-04T12:31:36.645Z,98270.41
2019-04-04T12:34:09.062Z,98258.11
2019-04-04T12:36:42.075Z,98263.32
2019-04-04T12:39:14.924Z,98265.49
2019-04-04T12:41:47.873Z,98266.41
2019-04-04T12:44:21.267Z,98259.81
2019-04-04T12:46:53.788Z,98258.72
2019-04-04T12:49:26.192Z,98252.77
2019-04-04T12:51:59.205Z,98257.06
2019-04-04T12:54:32.455Z,98247.80
2019-04-04T12:57:04.944Z,98253.25
2019-04-04T12:59:38.295Z,98252.63
2019-04-04T13:02:11.630Z,98252.33
2019-04-04T13:04:45.345Z,98249.65
2019-04-04T13:07:17.730Z,98239.95
2019-04-04T13:09:50.569Z,98247.98
2019-04-04T13:12:23.819Z,98248.36
2019-04-04T13:14:56.130Z,98248.20
2019-04-04T13:17:29.042Z,98256.02
2019-04-04T13:20:01.935Z,98245.34
2019-04-04T13:22:35.563Z,98247.50
2019-04-04T13:25:09.413Z,98253.33
2019-04-04T13:27:41.807Z,98244.12
2019-04-04T13:30:15.081Z,98242.16
2019-04-04T13:32:48.542Z,98231.55
2019-04-04T13:35:22.353Z,98230.58
2019-04-04T13:37:54.748Z,98233.63
2019-04-04T13:40:27.825Z,98221.35
2019-04-04T13:42:59.805Z,98230.80
2019-04-04T13:45:32.148Z,98228.14
2019-04-04T13:48:05.292Z,98227.28
2019-04-04T13:50:38.451Z,98226.12
2019-04-04T13:53:12.538Z,98229.68
2019-04-04T13:55:45.700Z,98222.31
2019-04-04T13:58:21.888Z,98221.38
2019-04-04T14:00:53.299Z,98215.34
2019-04-04T14:03:27.331Z,98217.44
2019-04-04T14:06:01.947Z,98217.73
2019-04-04T14:08:39.252Z,98226.07
2019-04-04T14:11:11.613Z,98219.32
2019-04-04T14:13:44.405Z,98220.57
2019-04-04T14:16:18.335Z,98220.98
2019-04-04T14:18:51.906Z,98225.02
2019-04-04T14:21:25.487Z,98224.19
2019-04-04T14:24:12.087Z,98225.83
2019-04-04T14:26:34.761Z,98218.63
2019-04-04T14:29:08.777Z,98218.88
2019-04-04T14:31:42.879Z,98214.45
2019-04-04T14:34:16.490Z,98210.09
2019-04-04T14:36:50.476Z,98212.19
2019-04-04T14:39:24.507Z,98202.86
2019-04-04T14:41:57.927Z,98201.02
2019-04-04T14:44:31.917Z,98201.69
2019-04-04T14:47:05.519Z,98203.78
2019-04-04T14:49:39.692Z,98194.97
2019-04-04T14:52:13.096Z,98198.80
2019-04-04T14:54:47.019Z,98195.25
2019-04-04T14:57:20.287Z,98192.76
2019-04-04T14:59:53.662Z,98194.39
2019-04-04T15:02:26.905Z,98192.13
2019-04-04T15:05:00.670Z,98192.34
2019-04-04T15:07:33.959Z,98196.36
2019-04-04T15:10:08.684Z,98194.30
2019-04-04T15:12:42.390Z,98196.03
2019-04-04T15:15:16.610Z,98190.69
2019-04-04T15:17:49.900Z,98188.53
2019-04-04T15:20:24.227Z,98192.98
2019-04-04T15:22:57.880Z,98193.23
2019-04-04T15:25:31.390Z,98198.14
2019-04-04T15:28:05.012Z,98196.25
2019-04-04T15:30:38.211Z,98203.17
2019-04-04T15:33:12.528Z,98204.64
2019-04-04T15:35:45.786Z,98200.33
2019-04-04T15:38:18.691Z,98200.54
2019-04-04T15:40:51.943Z,98198.36
2019-04-04T15:43:25.101Z,98197.85
2019-04-04T15:45:57.579Z,98200.63
2019-04-04T15:48:30.310Z,98203.47
2019-04-04T15:51:04.241Z,98205.06
2019-04-04T15:53:37.970Z,98205.00
2019-04-04T15:56:12.150Z,98200.08
2019-04-04T15:58:46.381Z,98198.86
2019-04-04T16:01:20.418Z,98196.71
2019-04-04T16:03:54.354Z,98199.06
2019-04-04T16:06:28.550Z,98189.79
2019-04-04T16:09:02.647Z,98192.44
2019-04-04T16:11:48.520Z,98194.21
2019-04-04T16:14:11.630Z,98192.63
2019-04-04T16:16:45.806Z,98197.91
2019-04-04T16:19:19.487Z,98195.42
2019-04-04T16:21:53.605Z,98199.52
2019-04-04T16:24:27.638Z,98193.67
2019-04-04T16:27:01.337Z,98202.37
2019-04-04T16:29:35.360Z,98198.91
2019-04-04T16:32:08.521Z,98202.02
2019-04-04T16:34:42.853Z,98201.81
2019-04-04T16:37:16.419Z,98200.66
2019-04-04T16:39:50.580Z,98208.53
2019-04-04T16:42:24.204Z,98211.75
2019-04-04T16:44:57.992Z,98219.41
2019-04-04T16:47:32.121Z,98222.60
2019-04-04T16:50:06.008Z,98229.49
2019-04-04T16:52:39.992Z,98229.72
2019-04-04T16:55:13.393Z,98228.85
2019-04-04T16:57:47.066Z,98237.37
2019-04-04T17:00:23.161Z,98235.60
2019-04-04T17:02:55.965Z,98234.95
2019-04-04T17:05:30.045Z,98241.27
2019-04-04T17:08:04.201Z,98238.06
2019-04-04T17:10:38.109Z,98247.68
2019-04-04T17:13:11.380Z,98250.63
2019-04-04T17:15:46.131Z,98257.02
2019-04-04T17:18:20.211Z,98254.33
2019-04-04T17:20:54.654Z,98258.69
2019-04-04T17:23:28.777Z,98265.55
2019-04-04T17:26:02.911Z,98263.44
2019-04-04T17:28:36.693Z,98271.02
2019-04-04T17:31:10.304Z,98271.61
2019-04-04T17:33:44.637Z,98277.05
2019-04-04T17:36:21.289Z,98275.20
2019-04-04T17:38:55.046Z,98282.66
2019-04-04T17:41:29.213Z,98291.73
2019-04-04T17:44:03.422Z,98292.46
2019-04-04T17:46:37.040Z,98298.83
2019-04-04T17:49:10.594Z,98302.14
2019-04-04T17:51:44.715Z,98303.16
2019-04-04T17:54:17.562Z,98309.69
2019-04-04T17:56:50.441Z,98317.00
2019-04-04T17:59:22.886Z,98317.34
2019-04-04T18:01:55.778Z,98320.45
2019-04-04T18:04:28.683Z,98325.09
2019-04-04T18:07:01.614Z,98323.32
2019-04-04T18:09:34.441Z,98331.53
2019-04-04T18:12:06.861Z,98336.72
2019-04-04T18:14:39.638Z,98340.19
2019-04-04T18:17:12.144Z,98342.33
2019-04-04T18:19:44.529Z,98344.59
2019-04-04T18:22:20.645Z,98352.75
2019-04-04T18:24:51.766Z,98353.64
2019-04-04T18:27:23.782Z,98352.79
2019-04-04T18:29:56.244Z,98357.89
2019-04-04T18:32:28.213Z,98359.41
2019-04-04T18:35:01.366Z,98362.75
2019-04-04T18:37:35.552Z,98368.02
2019-04-04T18:40:09.192Z,98370.14
2019-04-04T18:42:52.720Z,98375.28
2019-04-04T18:45:16.015Z,98377.44
2019-04-04T18:47:49.468Z,98373.20
2019-04-04T18:50:22.022Z,98373.20
2019-04-04T18:52:56.084Z,98378.34
2019-04-04T18:55:30.319Z,98379.91
2019-04-04T18:58:05.017Z,98380.31
2019-04-04T19:00:37.628Z,98386.51
2019-04-04T19:03:11.020Z,98386.57
2019-04-04T19:05:43.881Z,98384.87
2019-04-04T19:08:16.328Z,98390.25
2019-04-04T19:10:49.374Z,98394.75
2019-04-04T19:13:21.678Z,98393.63
2019-04-04T19:15:54.520Z,98395.94
2019-04-04T19:18:27.719Z,98394.77
2019-04-04T19:21:00.161Z,98392.27
2019-04-04T19:23:33.096Z,98397.06
2019-04-04T19:26:06.205Z,98399.33
2019-04-04T19:28:39.438Z,98399.55
2019-04-04T19:31:12.750Z,98402.75
2019-04-04T19:33:46.001Z,98400.48
2019-04-04T19:36:18.005Z,98409.97
2019-04-04T19:38:51.289Z,98411.84
2019-04-04T19:41:23.753Z,98414.30
2019-04-04T19:43:56.655Z,98413.23
2019-04-04T19:46:36.899Z,98419.16
2019-04-04T19:49:03.937Z,98415.37
2019-04-04T19:51:35.878Z,98421.29
2019-04-04T19:54:07.851Z,98418.56
2019-04-04T19:56:39.915Z,98419.91
2019-04-04T19:59:11.917Z,98421.48
2019-04-04T20:01:44.276Z,98424.98
2019-04-04T20:04:16.186Z,98428.77
2019-04-04T20:06:49.251Z,98426.75
2019-04-04T20:09:22.137Z,98433.72
2019-04-04T20:11:55.049Z,98436.43
2019-04-04T20:14:29.100Z,98429.42
2019-04-04T20:17:01.721Z,98429.88
2019-04-04T20:19:34.597Z,98432.30
2019-04-04T20:22:08.434Z,98428.03
2019-04-04T20:24:40.843Z,98430.89
2019-04-04T20:27:14.446Z,98431.34
2019-04-04T20:29:47.328Z,98430.80
2019-04-04T20:32:19.818Z,98434.26
2019-04-04T20:34:52.114Z,98436.73
2019-04-04T20:37:24.588Z,98441.23
2019-04-04T20:39:57.482Z,98443.59
2019-04-04T20:42:29.792Z,98449.73
2019-04-04T20:45:02.607Z,98453.55
2019-04-04T20:47:35.433Z,98455.05
2019-04-04T20:50:08.013Z,98462.65
2019-04-04T20:52:40.411Z,98466.19
2019-04-04T20:55:12.970Z,98464.64
2019-04-04T20:57:46.358Z,98468.71
2019-04-04T21:00:22.017Z,98467.03
2019-04-04T21:02:56.003Z,98471.18
2019-04-04T21:05:29.391Z,98473.00
2019-04-04T21:08:02.811Z,98470.11
2019-04-04T21:10:36.410Z,98471.84
2019-04-04T21:13:09.991Z,98473.49
2019-04-04T21:15:44.167Z,98476.91
2019-04-04T21:18:18.262Z,98472.17
2019-04-04T21:20:51.752Z,98478.16
2019-04-04T21:23:25.329Z,98474.37
2019-04-04T21:25:58.631Z,98476.97
2019-04-04T21:28:32.325Z,98479.17
2019-04-04T21:31:05.545Z,98477.55
2019-04-04T21:33:39.498Z,98475.69
2019-04-04T21:36:13.449Z,98480.70
2019-04-04T21:38:47.309Z,98483.30
2019-04-04T21:41:21.234Z,98487.46
2019-04-04T21:44:07.749Z,98490.33
2019-04-04T21:46:30.673Z,98490.99
2019-04-04T21:49:04.114Z,98486.86
2019-04-04T21:51:38.211Z,98489.03
2019-04-04T21:54:12.299Z,98494.05
2019-04-04T21:56:46.219Z,98497.34
2019-04-04T21:59:19.847Z,98496.44
2019-04-04T22:01:53.364Z,98500.71
2019-04-04T22:04:26.668Z,98505.19
2019-04-04T22:07:00.138Z,98506.50
2019-04-04T22:09:34.555Z,98501.11
2019-04-04T22:12:08.592Z,98506.45
2019-04-04T22:14:42.196Z,98505.88
2019-04-04T22:17:16.212Z,98507.11
2019-04-04T22:19:50.439Z,98511.23
2019-04-04T22:22:24.709Z,98507.90
2019-04-04T22:24:59.153Z,98506.55
2019-04-04T22:27:32.780Z,98506.58
2019-04-04T22:30:07.023Z,98505.25
2019-04-04T22:32:40.993Z,98501.91
2019-04-04T22:35:14.373Z,98503.53
2019-04-04T22:37:47.439Z,98505.27
2019-04-04T22:40:20.560Z,98510.48
2019-04-04T22:42:54.061Z,98513.58
2019-04-04T22:45:28.105Z,98512.80
2019-04-04T22:48:02.120Z,98510.91
2019-04-04T22:50:35.900Z,98515.67
2019-04-04T22:53:09.491Z,98516.28
2019-04-04T22:55:43.336Z,98516.73
2019-04-04T22:58:27.616Z,98518.59
2019-04-04T23:00:52.424Z,98518.11
2019-04-04T23:03:27.212Z,98518.45
2019-04-04T23:06:00.881Z,98517.25
2019-04-04T23:08:34.383Z,98520.05
2019-04-04T23:11:08.512Z,98521.44
2019-04-04T23:13:42.436Z,98524.41
2019-04-04T23:16:16.162Z,98521.86
2019-04-04T23:18:50.184Z,98520.23
2019-04-04T23:21:23.224Z,98518.67
2019-04-04T23:23:57.327Z,98521.66
2019-04-04T23:26:31.112Z,98516.81
2019-04-04T23:29:04.680Z,98515.67
2019-04-04T23:31:38.957Z,98516.20
2019-04-04T23:34:12.604Z,98512.66
2019-04-04T23:36:46.191Z,98514.43
2019-04-04T23:39:19.944Z,98518.84
2019-04-04T23:41:53.969Z,98517.14
2019-04-04T23:44:28.002Z,98511.36
2019-04-04T23:47:01.808Z,98509.66
2019-04-04T23:49:35.363Z,98508.05
2019-04-04T23:52:09.513Z,98513.66
2019-04-04T23:54:43.629Z,98509.78
2019-04-04T23:57:17.871Z,98517.36
2019-04-04T23:59:51.754Z,98513.41
